createdAt,value
2018-09-26T00:00:54.665Z,10.15
2018-09-26T00:02:08.498Z,10.14
2018-09-26T00:03:22.635Z,10.14
2018-09-26T00:04:36.975Z,10.13
2018-09-26T00:05:51.538Z,10.12
2018-09-26T00:07:05.337Z,10.09
2018-09-26T00:08:19.365Z,10.07
2018-09-26T00:09:33.183Z,10.05
2018-09-26T00:10:47.459Z,10.02
2018-09-26T00:12:02.262Z,10.04
2018-09-26T00:13:16.337Z,10.01
2018-09-26T00:14:30.240Z,9.99
2018-09-26T00:15:43.568Z,10
2018-09-26T00:16:57.420Z,9.99
2018-09-26T00:18:11.674Z,9.97
2018-09-26T00:19:25.741Z,9.96
2018-09-26T00:20:39.804Z,9.98
2018-09-26T00:21:53.588Z,9.99
2018-09-26T00:23:07.859Z,10.01
2018-09-26T00:24:36.666Z,10.02
2018-09-26T00:25:51.285Z,10.05
2018-09-26T00:27:05.392Z,10.06
2018-09-26T00:28:19.702Z,10.07
2018-09-26T00:29:33.241Z,10.13
2018-09-26T00:30:47.346Z,10.14
2018-09-26T00:32:01.373Z,10.16
2018-09-26T00:33:15.173Z,10.17
2018-09-26T00:34:29.263Z,10.16
2018-09-26T00:35:43.153Z,10.16
2018-09-26T00:36:57.627Z,10.14
2018-09-26T00:38:12.146Z,10.13
2018-09-26T00:39:25.487Z,10.12
2018-09-26T00:40:39.263Z,10.08
2018-09-26T00:41:53.559Z,10.03
2018-09-26T00:43:08.088Z,9.96
2018-09-26T00:44:21.701Z,9.88
2018-09-26T00:45:35.580Z,9.83
2018-09-26T00:46:49.361Z,9.78
2018-09-26T00:48:03.910Z,9.7
2018-09-26T00:49:18.008Z,9.67
2018-09-26T00:50:32.041Z,9.59
2018-09-26T00:51:46.116Z,9.54
2018-09-26T00:52:59.915Z,9.5
2018-09-26T00:54:13.159Z,9.48
2018-09-26T00:55:27.694Z,9.42
2018-09-26T00:56:41.255Z,9.38
2018-09-26T00:57:55.060Z,9.34
2018-09-26T00:59:08.617Z,9.32
2018-09-26T01:00:22.866Z,9.27
2018-09-26T01:01:37.374Z,9.26
2018-09-26T01:04:37.581Z,9.23
2018-09-26T01:05:51.396Z,9.25
2018-09-26T01:07:05.564Z,9.29
2018-09-26T01:08:19.113Z,9.32
2018-09-26T01:09:32.551Z,9.32
2018-09-26T01:10:46.107Z,9.31
2018-09-26T01:12:00.316Z,9.28
2018-09-26T01:13:29.731Z,9.25
2018-09-26T01:14:44.200Z,9.19
2018-09-26T01:15:58.010Z,9.13
2018-09-26T01:17:11.829Z,9.11
2018-09-26T01:18:25.609Z,9.09
2018-09-26T01:19:40.109Z,9.09
2018-09-26T01:20:53.712Z,9.1
2018-09-26T01:22:06.812Z,9.1
2018-09-26T01:23:21.058Z,9.09
2018-09-26T01:24:35.342Z,9.05
2018-09-26T01:25:49.904Z,9.01
2018-09-26T01:27:03.475Z,8.98
2018-09-26T01:28:17.378Z,8.98
2018-09-26T01:29:31.432Z,8.98
2018-09-26T01:30:45.468Z,9
2018-09-26T01:31:59.598Z,9.02
2018-09-26T01:33:13.635Z,9.02
2018-09-26T01:34:27.660Z,9.02
2018-09-26T01:35:41.288Z,9.05
2018-09-26T01:36:55.221Z,9.08
2018-09-26T01:38:08.850Z,9.09
2018-09-26T01:39:22.372Z,9.08
2018-09-26T01:40:35.925Z,9.03
2018-09-26T01:41:50.058Z,8.99
2018-09-26T01:43:04.506Z,8.98
2018-09-26T01:44:18.320Z,8.95
2018-09-26T01:45:32.391Z,8.92
2018-09-26T01:46:46.189Z,8.91
2018-09-26T01:47:59.775Z,8.9
2018-09-26T01:49:13.937Z,8.86
2018-09-26T01:50:28.464Z,8.84
2018-09-26T01:51:42.265Z,8.82
2018-09-26T01:52:56.282Z,8.84
2018-09-26T01:54:10.855Z,8.83
2018-09-26T01:55:24.924Z,8.84
2018-09-26T01:56:39.487Z,8.83
2018-09-26T01:57:53.271Z,8.84
2018-09-26T01:59:07.047Z,8.82
2018-09-26T02:00:20.924Z,8.79
2018-09-26T02:01:35.526Z,8.8
2018-09-26T02:02:49.580Z,8.77
2018-09-26T02:04:03.725Z,8.77
2018-09-26T02:05:17.988Z,8.78
2018-09-26T02:06:32.335Z,8.77
2018-09-26T02:07:45.916Z,8.75
2018-09-26T02:08:59.992Z,8.69
2018-09-26T02:10:13.792Z,8.65
2018-09-26T02:11:27.871Z,8.61
2018-09-26T02:12:42.016Z,8.59
2018-09-26T02:13:55.807Z,8.57
2018-09-26T02:15:09.942Z,8.57
2018-09-26T02:17:52.855Z,8.57
2018-09-26T02:19:06.923Z,8.57
2018-09-26T02:20:21.020Z,8.56
2018-09-26T02:21:35.467Z,8.54
2018-09-26T02:22:49.569Z,8.51
2018-09-26T02:24:03.978Z,8.45
2018-09-26T02:25:18.038Z,8.43
2018-09-26T02:26:32.336Z,8.43
2018-09-26T02:27:46.591Z,8.45
2018-09-26T02:29:00.845Z,8.45
2018-09-26T02:30:14.155Z,8.45
2018-09-26T02:31:28.279Z,8.45
2018-09-26T02:32:42.413Z,8.44
2018-09-26T02:33:56.943Z,8.43
2018-09-26T02:35:10.739Z,8.41
2018-09-26T02:36:25.026Z,8.38
2018-09-26T02:37:39.266Z,8.37
2018-09-26T02:38:53.370Z,8.36
2018-09-26T02:40:07.649Z,8.37
2018-09-26T02:41:21.764Z,8.39
2018-09-26T02:42:36.053Z,8.42
2018-09-26T02:43:49.852Z,8.4
2018-09-26T02:45:04.083Z,8.4
2018-09-26T02:46:18.542Z,8.42
2018-09-26T02:47:32.097Z,8.45
2018-09-26T02:48:46.137Z,8.45
2018-09-26T02:50:00.167Z,8.48
2018-09-26T02:51:14.333Z,8.5
2018-09-26T02:52:28.436Z,8.51
2018-09-26T02:53:42.291Z,8.53
2018-09-26T02:54:56.092Z,8.54
2018-09-26T02:56:10.165Z,8.56
2018-09-26T02:57:23.969Z,8.56
2018-09-26T02:58:38.382Z,8.55
2018-09-26T02:59:52.537Z,8.53
2018-09-26T03:01:06.789Z,8.54
2018-09-26T03:02:20.345Z,8.59
2018-09-26T03:03:49.359Z,8.61
2018-09-26T03:05:03.399Z,8.64
2018-09-26T03:06:17.428Z,8.63
2018-09-26T03:07:31.705Z,8.58
2018-09-26T03:08:46.353Z,8.54
2018-09-26T03:10:00.375Z,8.53
2018-09-26T03:11:15.053Z,8.53
2018-09-26T03:12:29.074Z,8.54
2018-09-26T03:13:43.327Z,8.55
2018-09-26T03:14:57.338Z,8.56
2018-09-26T03:16:11.654Z,8.59
2018-09-26T03:17:26.016Z,8.59
2018-09-26T03:18:40.299Z,8.6
2018-09-26T03:19:54.029Z,8.58
2018-09-26T03:21:07.946Z,8.59
2018-09-26T03:22:21.994Z,8.59
2018-09-26T03:23:36.920Z,8.61
2018-09-26T03:24:50.491Z,8.65
2018-09-26T03:26:04.621Z,8.67
2018-09-26T03:27:18.632Z,8.66
2018-09-26T03:28:33.222Z,8.69
2018-09-26T03:29:47.865Z,8.68
2018-09-26T03:31:01.759Z,8.6
2018-09-26T03:32:16.221Z,8.57
2018-09-26T03:33:30.553Z,8.54
2018-09-26T03:34:45.148Z,8.54
2018-09-26T03:35:59.024Z,8.53
2018-09-26T03:37:12.949Z,8.51
2018-09-26T03:38:26.543Z,8.51
2018-09-26T03:39:41.169Z,8.49
2018-09-26T03:40:55.686Z,8.5
2018-09-26T03:42:09.738Z,8.5
2018-09-26T03:44:52.032Z,8.47
2018-09-26T03:46:06.398Z,8.48
2018-09-26T03:47:20.699Z,8.45
2018-09-26T03:48:35.050Z,8.44
2018-09-26T03:49:49.415Z,8.41
2018-09-26T03:51:03.444Z,8.41
2018-09-26T03:52:17.047Z,8.42
2018-09-26T03:53:31.676Z,8.42
2018-09-26T03:54:45.719Z,8.44
2018-09-26T03:55:59.523Z,8.44
2018-09-26T03:57:14.069Z,8.44
2018-09-26T03:58:28.114Z,8.46
2018-09-26T03:59:42.838Z,8.46
2018-09-26T04:00:56.876Z,8.45
2018-09-26T04:02:11.030Z,8.43
2018-09-26T04:03:25.133Z,8.4
2018-09-26T04:04:39.110Z,8.39
2018-09-26T04:05:53.356Z,8.4
2018-09-26T04:07:07.453Z,8.39
2018-09-26T04:08:21.019Z,8.4
2018-09-26T04:09:35.287Z,8.4
2018-09-26T04:10:49.083Z,8.4
2018-09-26T04:12:03.420Z,8.37
2018-09-26T04:13:17.292Z,8.35
2018-09-26T04:14:31.806Z,8.28
2018-09-26T04:15:46.326Z,8.23
2018-09-26T04:17:01.005Z,8.21
2018-09-26T04:18:15.614Z,8.18
2018-09-26T04:19:29.193Z,8.14
2018-09-26T04:20:43.483Z,8.11
2018-09-26T04:21:57.268Z,8.09
2018-09-26T04:23:11.327Z,8.1
2018-09-26T04:24:25.381Z,8.1
2018-09-26T04:25:39.392Z,8.08
2018-09-26T04:26:54.231Z,8.1
2018-09-26T04:28:09.505Z,8.14
2018-09-26T04:29:23.462Z,8.15
2018-09-26T04:30:37.904Z,8.16
2018-09-26T04:31:52.317Z,8.17
2018-09-26T04:33:07.213Z,8.17
2018-09-26T04:34:36.395Z,8.15
2018-09-26T04:35:50.963Z,8.15
2018-09-26T04:37:04.846Z,8.12
2018-09-26T04:38:18.906Z,8.13
2018-09-26T04:39:32.597Z,8.13
2018-09-26T04:40:46.405Z,8.15
2018-09-26T04:42:00.830Z,8.16
2018-09-26T04:43:14.777Z,8.18
2018-09-26T04:44:28.692Z,8.19
2018-09-26T04:47:11.735Z,8.22
2018-09-26T04:48:26.627Z,8.21
2018-09-26T04:49:40.707Z,8.19
2018-09-26T04:50:54.930Z,8.19
2018-09-26T04:52:23.925Z,8.18
2018-09-26T04:53:38.239Z,8.14
2018-09-26T04:54:52.615Z,8.09
2018-09-26T04:56:07.150Z,8.01
2018-09-26T04:57:20.973Z,7.95
2018-09-26T04:58:35.112Z,7.93
2018-09-26T04:59:48.836Z,7.91
2018-09-26T05:01:03.110Z,7.88
2018-09-26T05:02:17.186Z,7.86
2018-09-26T05:03:31.226Z,7.82
2018-09-26T05:04:45.037Z,7.83
2018-09-26T05:05:59.298Z,7.82
2018-09-26T05:07:13.695Z,7.83
2018-09-26T05:08:27.624Z,7.85
2018-09-26T05:09:41.743Z,7.86
2018-09-26T05:10:55.408Z,7.89
2018-09-26T05:12:09.256Z,7.9
2018-09-26T05:13:23.314Z,7.95
2018-09-26T05:14:37.433Z,8
2018-09-26T05:15:51.518Z,8.05
2018-09-26T05:17:05.534Z,8.07
2018-09-26T05:18:20.031Z,8.13
2018-09-26T05:19:34.607Z,8.15
2018-09-26T05:20:48.184Z,8.16
2018-09-26T05:22:01.530Z,8.14
2018-09-26T05:23:16.293Z,8.1
2018-09-26T05:24:30.273Z,8.06
2018-09-26T05:25:44.146Z,8.07
2018-09-26T05:26:58.266Z,8.08
2018-09-26T05:28:12.778Z,8.05
2018-09-26T05:29:26.712Z,8.07
2018-09-26T05:30:40.777Z,8.09
2018-09-26T05:31:55.317Z,8.14
2018-09-26T05:33:09.241Z,8.18
2018-09-26T05:34:23.318Z,8.22
2018-09-26T05:35:37.013Z,8.25
2018-09-26T05:36:51.308Z,8.28
2018-09-26T05:38:05.412Z,8.34
2018-09-26T05:39:19.522Z,8.4
2018-09-26T05:40:33.597Z,8.44
2018-09-26T05:41:48.010Z,8.49
2018-09-26T05:43:02.673Z,8.52
2018-09-26T05:44:16.978Z,8.53
2018-09-26T05:45:30.792Z,8.51
2018-09-26T05:46:59.565Z,8.52
2018-09-26T05:48:13.678Z,8.51
2018-09-26T05:49:27.949Z,8.52
2018-09-26T05:50:42.290Z,8.53
2018-09-26T05:51:56.332Z,8.52
2018-09-26T05:53:10.380Z,8.51
2018-09-26T05:54:24.614Z,8.49
2018-09-26T05:55:39.133Z,8.49
2018-09-26T05:56:52.986Z,8.54
2018-09-26T05:58:07.019Z,8.61
2018-09-26T05:59:21.074Z,8.67
2018-09-26T06:00:35.323Z,8.75
2018-09-26T06:01:49.130Z,8.78
2018-09-26T06:03:03.003Z,8.79
2018-09-26T06:04:17.423Z,8.79
2018-09-26T06:05:32.326Z,8.83
2018-09-26T06:06:46.394Z,8.87
2018-09-26T06:08:00.461Z,8.94
2018-09-26T06:09:14.784Z,8.99
2018-09-26T06:10:28.581Z,9.03
2018-09-26T06:11:42.964Z,9.1
2018-09-26T06:12:57.438Z,9.16
2018-09-26T06:14:12.343Z,9.22
2018-09-26T06:15:26.682Z,9.3
2018-09-26T06:16:40.491Z,9.38
2018-09-26T06:17:54.429Z,9.47
2018-09-26T06:19:08.425Z,9.55
2018-09-26T06:20:23.004Z,9.63
2018-09-26T06:21:36.844Z,9.69
2018-09-26T06:22:50.675Z,9.76
2018-09-26T06:24:04.491Z,9.8
2018-09-26T06:25:18.097Z,9.84
2018-09-26T06:26:32.178Z,9.88
2018-09-26T06:27:46.682Z,9.94
2018-09-26T06:29:00.045Z,10.02
2018-09-26T06:30:14.061Z,10.09
2018-09-26T06:31:28.599Z,10.16
2018-09-26T06:32:42.906Z,10.23
2018-09-26T06:33:57.299Z,10.3
2018-09-26T06:35:11.450Z,10.34
2018-09-26T06:36:25.049Z,10.4
2018-09-26T06:37:38.881Z,10.45
2018-09-26T06:38:52.911Z,10.48
2018-09-26T06:40:07.477Z,10.54
2018-09-26T06:41:21.741Z,10.61
2018-09-26T06:42:35.831Z,10.69
2018-09-26T06:43:49.908Z,10.78
2018-09-26T06:45:03.957Z,10.85
2018-09-26T06:46:18.041Z,10.89
2018-09-26T06:47:31.794Z,10.91
2018-09-26T06:48:47.075Z,10.95
2018-09-26T06:50:01.217Z,10.98
2018-09-26T06:51:15.486Z,10.99
2018-09-26T06:52:31.003Z,11.01
2018-09-26T06:53:45.346Z,11.07
2018-09-26T06:56:43.588Z,11.15
2018-09-26T06:57:58.112Z,11.2
2018-09-26T06:59:12.295Z,11.26
2018-09-26T07:00:26.616Z,11.32
2018-09-26T07:01:40.555Z,11.36
2018-09-26T07:02:54.685Z,11.4
2018-09-26T07:04:08.653Z,11.47
2018-09-26T07:05:22.476Z,11.47
2018-09-26T07:06:36.771Z,11.44
2018-09-26T07:07:51.056Z,11.47
2018-09-26T07:09:05.051Z,11.5
2018-09-26T07:10:19.605Z,11.53
2018-09-26T07:11:33.759Z,11.57
2018-09-26T07:12:48.080Z,11.57
2018-09-26T07:14:01.965Z,11.55
2018-09-26T07:15:16.285Z,11.52
2018-09-26T07:16:30.575Z,11.53
2018-09-26T07:17:44.604Z,11.56
2018-09-26T07:18:58.858Z,11.53
2018-09-26T07:20:12.885Z,11.53
2018-09-26T07:21:27.341Z,11.44
2018-09-26T07:22:41.715Z,11.34
2018-09-26T07:23:56.270Z,11.33
2018-09-26T07:25:11.161Z,11.29
2018-09-26T07:26:25.228Z,11.26
2018-09-26T07:27:39.384Z,11.24
2018-09-26T07:28:52.968Z,11.3
2018-09-26T07:30:06.839Z,11.36
2018-09-26T07:32:50.013Z,11.57
2018-09-26T07:34:04.093Z,11.65
2018-09-26T07:35:18.130Z,11.73
2018-09-26T07:36:32.198Z,11.83
2018-09-26T07:37:46.761Z,11.85
2018-09-26T07:39:01.265Z,11.83
2018-09-26T07:40:15.349Z,11.87
2018-09-26T07:41:29.713Z,11.95
2018-09-26T07:42:43.821Z,12.1
2018-09-26T07:43:57.981Z,12.21
2018-09-26T07:45:12.293Z,12.31
2018-09-26T07:46:26.895Z,12.44
2018-09-26T07:47:40.711Z,12.55
2018-09-26T07:48:54.850Z,12.66
2018-09-26T07:50:08.923Z,12.75
2018-09-26T07:51:23.261Z,12.76
2018-09-26T07:52:37.749Z,12.75
2018-09-26T07:53:51.842Z,12.8
2018-09-26T07:55:05.901Z,12.84
2018-09-26T07:56:19.727Z,12.87
2018-09-26T07:57:34.057Z,12.87
2018-09-26T07:58:48.107Z,12.92
2018-09-26T08:00:02.178Z,12.99
2018-09-26T08:01:16.205Z,13.05
2018-09-26T08:02:30.494Z,13.1
2018-09-26T08:03:43.871Z,13.15
2018-09-26T08:04:58.254Z,13.21
2018-09-26T08:06:12.777Z,13.25
2018-09-26T08:07:27.272Z,13.28
2018-09-26T08:08:41.384Z,13.33
2018-09-26T08:09:54.734Z,13.35
2018-09-26T08:11:08.634Z,13.39
2018-09-26T08:12:23.270Z,13.45
2018-09-26T08:13:37.110Z,13.53
2018-09-26T08:14:51.659Z,13.57
2018-09-26T08:16:05.961Z,13.62
2018-09-26T08:17:20.786Z,13.66
2018-09-26T08:18:34.792Z,13.7
2018-09-26T08:19:49.283Z,13.71
2018-09-26T08:21:03.124Z,13.74
2018-09-26T08:22:17.225Z,13.76
2018-09-26T08:23:31.515Z,13.8
2018-09-26T08:24:45.338Z,13.86
2018-09-26T08:25:59.188Z,13.94
2018-09-26T08:27:12.806Z,14.01
2018-09-26T08:28:26.881Z,14.09
2018-09-26T08:29:40.994Z,14.14
2018-09-26T08:30:55.347Z,14.19
2018-09-26T08:32:09.648Z,14.21
2018-09-26T08:33:23.965Z,14.26
2018-09-26T08:34:38.027Z,14.29
2018-09-26T08:35:51.653Z,14.35
2018-09-26T08:37:05.727Z,14.41
2018-09-26T08:38:19.577Z,14.46
2018-09-26T08:39:33.628Z,14.53
2018-09-26T08:40:47.472Z,14.57
2018-09-26T08:42:02.289Z,14.59
2018-09-26T08:43:15.934Z,14.62
2018-09-26T08:44:30.198Z,14.65
2018-09-26T08:45:44.090Z,14.68
2018-09-26T08:46:58.441Z,14.71
2018-09-26T08:48:13.036Z,14.72
2018-09-26T08:49:27.110Z,14.78
2018-09-26T08:50:41.299Z,14.83
2018-09-26T08:51:55.441Z,14.86
2018-09-26T08:53:09.293Z,14.9
2018-09-26T08:54:24.049Z,14.96
2018-09-26T08:55:37.859Z,15
2018-09-26T08:56:51.702Z,15.08
2018-09-26T08:58:05.742Z,15.13
2018-09-26T08:59:20.053Z,15.21
2018-09-26T09:00:49.114Z,15.25
2018-09-26T09:02:02.982Z,15.29
2018-09-26T09:03:17.311Z,15.31
2018-09-26T09:04:31.113Z,15.36
2018-09-26T09:05:45.659Z,15.41
2018-09-26T09:06:59.500Z,15.44
2018-09-26T09:08:14.061Z,15.47
2018-09-26T09:09:28.404Z,15.52
2018-09-26T09:10:42.479Z,15.59
2018-09-26T09:11:56.566Z,15.66
2018-09-26T09:13:10.678Z,15.69
2018-09-26T09:14:25.216Z,15.75
2018-09-26T09:15:40.652Z,15.8
2018-09-26T09:16:55.011Z,15.83
2018-09-26T09:18:08.853Z,15.87
2018-09-26T09:19:22.934Z,15.91
2018-09-26T09:20:37.446Z,15.96
2018-09-26T09:21:51.327Z,16.05
2018-09-26T09:23:05.552Z,16.13
2018-09-26T09:24:19.394Z,16.21
2018-09-26T09:25:33.972Z,16.25
2018-09-26T09:26:48.300Z,16.28
2018-09-26T09:28:02.646Z,16.32
2018-09-26T09:29:16.451Z,16.38
2018-09-26T09:30:31.006Z,16.43
2018-09-26T09:31:44.629Z,16.51
2018-09-26T09:32:58.671Z,16.57
2018-09-26T09:34:12.063Z,16.65
2018-09-26T09:35:26.141Z,16.71
2018-09-26T09:36:40.016Z,16.77
2018-09-26T09:37:54.351Z,16.8
2018-09-26T09:39:08.206Z,16.87
2018-09-26T09:40:22.504Z,16.92
2018-09-26T09:41:37.051Z,16.96
2018-09-26T09:42:51.364Z,17.01
2018-09-26T09:44:05.628Z,17.06
2018-09-26T09:45:19.854Z,17.12
2018-09-26T09:46:33.931Z,17.18
2018-09-26T09:47:48.192Z,17.25
2018-09-26T09:49:02.369Z,17.32
2018-09-26T09:50:16.342Z,17.36
2018-09-26T09:51:30.484Z,17.38
2018-09-26T09:52:44.934Z,17.37
2018-09-26T09:53:58.790Z,17.38
2018-09-26T09:55:12.876Z,17.38
2018-09-26T09:56:27.279Z,17.41
2018-09-26T09:57:41.325Z,17.47
2018-09-26T09:58:55.616Z,17.5
2018-09-26T10:00:09.454Z,17.55
2018-09-26T10:01:23.785Z,17.59
2018-09-26T10:02:37.789Z,17.63
2018-09-26T10:03:52.191Z,17.62
2018-09-26T10:05:06.681Z,17.6
2018-09-26T10:06:20.249Z,17.58
2018-09-26T10:07:34.706Z,17.58
2018-09-26T10:08:49.446Z,17.57
2018-09-26T10:10:03.765Z,17.57
2018-09-26T10:11:18.288Z,17.59
2018-09-26T10:12:32.269Z,17.61
2018-09-26T10:13:46.568Z,17.6
2018-09-26T10:15:00.641Z,17.6
2018-09-26T10:16:14.475Z,17.61
2018-09-26T10:17:28.663Z,17.6
2018-09-26T10:18:42.710Z,17.6
2018-09-26T10:19:56.559Z,17.61
2018-09-26T10:21:10.989Z,17.63
2018-09-26T10:22:25.616Z,17.65
2018-09-26T10:23:54.135Z,17.68
2018-09-26T10:25:08.692Z,17.64
2018-09-26T10:26:22.840Z,17.61
2018-09-26T10:27:36.650Z,17.61
2018-09-26T10:28:50.569Z,17.58
2018-09-26T10:30:05.344Z,17.54
2018-09-26T10:31:20.179Z,17.44
2018-09-26T10:32:34.518Z,17.38
2018-09-26T10:33:47.887Z,17.36
2018-09-26T10:35:02.617Z,17.36
2018-09-26T10:36:16.603Z,17.39
2018-09-26T10:37:30.466Z,17.46
2018-09-26T10:38:43.819Z,17.53
2018-09-26T10:39:58.383Z,17.58
2018-09-26T10:41:13.045Z,17.62
2018-09-26T10:42:27.126Z,17.64
2018-09-26T10:43:41.202Z,17.65
2018-09-26T10:44:55.064Z,17.68
2018-09-26T10:46:09.189Z,17.72
2018-09-26T10:47:23.498Z,17.75
2018-09-26T10:48:37.653Z,17.76
2018-09-26T10:49:52.222Z,17.8
2018-09-26T10:51:06.581Z,17.85
2018-09-26T10:52:20.657Z,17.9
2018-09-26T10:53:35.202Z,17.97
2018-09-26T10:54:49.060Z,18.02
2018-09-26T10:56:03.189Z,18.11
2018-09-26T10:57:17.952Z,18.19
2018-09-26T10:58:32.072Z,18.26
2018-09-26T10:59:45.910Z,18.36
2018-09-26T11:01:00.023Z,18.45
2018-09-26T11:02:14.581Z,18.54
2018-09-26T11:03:29.466Z,18.63
2018-09-26T11:04:44.163Z,18.69
2018-09-26T11:05:58.453Z,18.75
2018-09-26T11:07:12.304Z,18.76
2018-09-26T11:08:26.605Z,18.74
2018-09-26T11:09:40.790Z,18.73
2018-09-26T11:10:54.367Z,18.72
2018-09-26T11:12:08.898Z,18.74
2018-09-26T11:13:23.200Z,18.77
2018-09-26T11:14:36.824Z,18.78
2018-09-26T11:15:51.116Z,18.79
2018-09-26T11:17:05.516Z,18.83
2018-09-26T11:18:19.159Z,18.87
2018-09-26T11:19:33.916Z,18.91
2018-09-26T11:20:48.046Z,18.94
2018-09-26T11:22:01.654Z,18.98
2018-09-26T11:23:16.715Z,19.04
2018-09-26T11:24:31.286Z,19.09
2018-09-26T11:25:45.382Z,19.11
2018-09-26T11:26:59.733Z,19.15
2018-09-26T11:28:13.660Z,19.19
2018-09-26T11:29:27.439Z,19.23
2018-09-26T11:30:41.400Z,19.23
2018-09-26T11:31:55.790Z,19.21
2018-09-26T11:33:10.223Z,19.18
2018-09-26T11:34:39.554Z,19.16
2018-09-26T11:35:53.750Z,19.15
2018-09-26T11:37:07.410Z,19.16
2018-09-26T11:38:22.319Z,19.12
2018-09-26T11:39:36.277Z,19.07
2018-09-26T11:40:50.150Z,19.07
2018-09-26T11:42:04.655Z,19.11
2018-09-26T11:43:18.501Z,19.13
2018-09-26T11:44:32.743Z,19.15
2018-09-26T11:45:47.682Z,19.17
2018-09-26T11:47:01.984Z,19.18
2018-09-26T11:48:16.071Z,19.18
2018-09-26T11:49:30.572Z,19.19
2018-09-26T11:50:44.928Z,19.18
2018-09-26T11:51:58.789Z,19.21
2018-09-26T11:53:12.757Z,19.29
2018-09-26T11:54:26.645Z,19.38
2018-09-26T11:55:40.736Z,19.48
2018-09-26T11:58:24.105Z,19.6
2018-09-26T11:59:37.815Z,19.65
2018-09-26T12:00:52.133Z,19.76
2018-09-26T12:02:05.855Z,19.85
2018-09-26T12:03:19.421Z,19.96
2018-09-26T12:04:33.509Z,20.06
2018-09-26T12:05:47.161Z,20.16
2018-09-26T12:07:01.750Z,20.21
2018-09-26T12:08:17.592Z,20.26
2018-09-26T12:09:32.065Z,20.31
2018-09-26T12:10:46.230Z,20.37
2018-09-26T12:12:00.270Z,20.36
2018-09-26T12:13:14.431Z,20.34
2018-09-26T12:14:28.954Z,20.33
2018-09-26T12:15:43.018Z,20.33
2018-09-26T12:16:57.105Z,20.32
2018-09-26T12:18:11.453Z,20.31
2018-09-26T12:19:26.140Z,20.36
2018-09-26T12:20:40.518Z,20.39
2018-09-26T12:21:55.293Z,20.42
2018-09-26T12:23:09.275Z,20.45
2018-09-26T12:24:23.028Z,20.48
2018-09-26T12:25:36.926Z,20.48
2018-09-26T12:26:51.180Z,20.52
2018-09-26T12:28:05.324Z,20.56
2018-09-26T12:29:19.378Z,20.58
2018-09-26T12:30:33.531Z,20.59
2018-09-26T12:31:47.859Z,20.59
2018-09-26T12:33:02.668Z,20.61
2018-09-26T12:34:16.420Z,20.64
2018-09-26T12:35:31.075Z,20.67
2018-09-26T12:36:44.945Z,20.69
2018-09-26T12:37:58.997Z,20.73
2018-09-26T12:39:12.645Z,20.75
2018-09-26T12:40:27.289Z,20.77
2018-09-26T12:41:40.984Z,20.82
2018-09-26T12:42:55.040Z,20.85
2018-09-26T12:44:09.040Z,20.9
2018-09-26T12:45:23.637Z,20.95
2018-09-26T12:46:37.741Z,20.98
2018-09-26T12:47:51.354Z,20.96
2018-09-26T12:49:04.741Z,20.98
2018-09-26T12:50:18.610Z,21.01
2018-09-26T12:51:33.439Z,21.07
2018-09-26T12:52:47.277Z,21.1
2018-09-26T12:54:02.246Z,21.13
2018-09-26T12:55:16.339Z,21.12
2018-09-26T12:56:30.171Z,21.11
2018-09-26T12:57:44.477Z,21.1
2018-09-26T12:58:58.788Z,21.1
2018-09-26T13:00:12.551Z,21.08
2018-09-26T13:01:27.626Z,21.06
2018-09-26T13:02:41.892Z,21.06
2018-09-26T13:03:56.932Z,21.11
2018-09-26T13:05:10.913Z,21.2
2018-09-26T13:06:24.948Z,21.26
2018-09-26T13:07:39.382Z,21.3
2018-09-26T13:08:53.728Z,21.32
2018-09-26T13:10:08.161Z,21.39
2018-09-26T13:11:22.933Z,21.48
2018-09-26T13:12:37.069Z,21.54
2018-09-26T13:13:51.173Z,21.65
2018-09-26T13:15:05.155Z,21.74
2018-09-26T13:16:19.962Z,21.77
2018-09-26T13:17:34.242Z,21.77
2018-09-26T13:18:48.198Z,21.77
2018-09-26T13:20:02.635Z,21.78
2018-09-26T13:21:16.526Z,21.78
2018-09-26T13:22:30.873Z,21.79
2018-09-26T13:23:45.207Z,21.77
2018-09-26T13:24:59.320Z,21.77
2018-09-26T13:26:13.575Z,21.77
2018-09-26T13:27:28.621Z,21.77
2018-09-26T13:28:42.937Z,21.78
2018-09-26T13:29:57.339Z,21.82
2018-09-26T13:31:11.310Z,21.85
2018-09-26T13:32:25.963Z,21.85
2018-09-26T13:33:40.484Z,21.82
2018-09-26T13:34:54.670Z,21.79
2018-09-26T13:36:09.229Z,21.75
2018-09-26T13:37:23.472Z,21.73
2018-09-26T13:38:38.006Z,21.73
2018-09-26T13:39:52.348Z,21.78
2018-09-26T13:41:07.008Z,21.83
2018-09-26T13:42:21.758Z,21.87
2018-09-26T13:43:36.521Z,21.85
2018-09-26T13:44:50.623Z,21.82
2018-09-26T13:46:04.897Z,21.76
2018-09-26T13:47:19.695Z,21.7
2018-09-26T13:48:33.914Z,21.64
2018-09-26T13:49:48.009Z,21.63
2018-09-26T13:51:02.090Z,21.62
2018-09-26T13:52:15.817Z,21.59
2018-09-26T13:53:31.054Z,21.55
2018-09-26T13:54:44.932Z,21.49
2018-09-26T13:55:59.313Z,21.42
2018-09-26T13:57:13.044Z,21.35
2018-09-26T13:58:27.122Z,21.3
2018-09-26T13:59:41.746Z,21.24
2018-09-26T14:00:55.604Z,21.21
2018-09-26T14:02:09.846Z,21.18
2018-09-26T14:03:24.181Z,21.15
2018-09-26T14:04:38.226Z,21.11
2018-09-26T14:05:52.486Z,21.1
2018-09-26T14:07:06.331Z,21.08
2018-09-26T14:08:20.169Z,21.07
2018-09-26T14:09:34.092Z,21.07
2018-09-26T14:10:48.633Z,21.08
2018-09-26T14:12:02.705Z,21.11
2018-09-26T14:13:16.866Z,21.15
2018-09-26T14:14:30.708Z,21.14
2018-09-26T14:15:45.275Z,21.13
2018-09-26T14:16:59.991Z,21.13
2018-09-26T14:18:14.698Z,21.16
2018-09-26T14:19:29.481Z,21.18
2018-09-26T14:20:43.356Z,21.19
2018-09-26T14:21:57.827Z,21.18
2018-09-26T14:23:12.341Z,21.17
2018-09-26T14:24:27.502Z,21.13
2018-09-26T14:25:42.129Z,21.07
2018-09-26T14:26:56.927Z,21.02
2018-09-26T14:28:11.010Z,21.01
2018-09-26T14:29:26.203Z,21
2018-09-26T14:30:41.092Z,21
2018-09-26T14:31:55.617Z,20.99
2018-09-26T14:33:09.843Z,21.01
2018-09-26T14:34:25.050Z,21.02
2018-09-26T14:35:39.129Z,21.02
2018-09-26T14:36:53.551Z,21.06
2018-09-26T14:38:07.760Z,21.1
2018-09-26T14:39:22.228Z,21.11
2018-09-26T14:40:37.060Z,21.11
2018-09-26T14:41:51.875Z,21.12
2018-09-26T14:43:05.696Z,21.12
2018-09-26T14:44:19.736Z,21.12
2018-09-26T14:45:34.886Z,21.12
2018-09-26T14:46:49.239Z,21.13
2018-09-26T14:48:03.546Z,21.11
2018-09-26T14:49:17.752Z,21.13
2018-09-26T14:50:31.829Z,21.14
2018-09-26T14:51:45.698Z,21.18
2018-09-26T14:53:00.325Z,21.22
2018-09-26T14:54:14.439Z,21.31
2018-09-26T14:55:29.135Z,21.37
2018-09-26T14:56:43.333Z,21.41
2018-09-26T14:57:57.988Z,21.42
2018-09-26T14:59:12.764Z,21.38
2018-09-26T15:00:27.152Z,21.35
2018-09-26T15:01:40.969Z,21.36
2018-09-26T15:03:09.991Z,21.4
2018-09-26T15:04:24.179Z,21.42
2018-09-26T15:05:38.693Z,21.42
2018-09-26T15:06:52.806Z,21.42
2018-09-26T15:08:06.977Z,21.44
2018-09-26T15:09:20.916Z,21.47
2018-09-26T15:10:35.025Z,21.46
2018-09-26T15:11:48.974Z,21.46
2018-09-26T15:13:03.669Z,21.45
2018-09-26T15:14:17.894Z,21.44
2018-09-26T15:15:32.205Z,21.45
2018-09-26T15:16:46.303Z,21.45
2018-09-26T15:18:00.420Z,21.47
2018-09-26T15:19:14.973Z,21.47
2018-09-26T15:20:29.034Z,21.46
2018-09-26T15:21:43.651Z,21.44
2018-09-26T15:22:57.729Z,21.42
2018-09-26T15:24:11.917Z,21.41
2018-09-26T15:25:26.566Z,21.39
2018-09-26T15:26:40.440Z,21.35
2018-09-26T15:27:54.212Z,21.33
2018-09-26T15:29:08.654Z,21.31
2018-09-26T15:30:22.053Z,21.27
2018-09-26T15:31:36.831Z,21.25
2018-09-26T15:32:50.708Z,21.21
2018-09-26T15:34:04.551Z,21.19
2018-09-26T15:35:19.246Z,21.17
2018-09-26T15:36:33.303Z,21.17
2018-09-26T15:37:47.200Z,21.18
2018-09-26T15:39:01.524Z,21.17
2018-09-26T15:40:15.595Z,21.14
2018-09-26T15:41:30.421Z,21.11
2018-09-26T15:42:44.638Z,21.1
2018-09-26T15:43:58.964Z,21.09
2018-09-26T15:45:13.522Z,21.05
2018-09-26T15:46:28.004Z,21
2018-09-26T15:47:41.640Z,20.96
2018-09-26T15:48:56.016Z,20.89
2018-09-26T15:50:10.556Z,20.85
2018-09-26T15:51:24.400Z,20.84
2018-09-26T15:52:38.990Z,20.82
2018-09-26T15:53:53.100Z,20.81
2018-09-26T15:55:06.950Z,20.82
2018-09-26T15:56:21.253Z,20.82
2018-09-26T15:57:35.276Z,20.84
2018-09-26T15:58:49.363Z,20.85
2018-09-26T16:00:03.196Z,20.85
2018-09-26T16:01:18.056Z,20.84
2018-09-26T16:02:32.682Z,20.86
2018-09-26T16:03:47.088Z,20.87
2018-09-26T16:05:01.650Z,20.87
2018-09-26T16:06:15.855Z,20.87
2018-09-26T16:07:29.996Z,20.87
2018-09-26T16:08:44.364Z,20.85
2018-09-26T16:09:58.481Z,20.82
2018-09-26T16:11:13.045Z,20.8
2018-09-26T16:12:27.120Z,20.77
2018-09-26T16:13:41.253Z,20.75
2018-09-26T16:14:55.555Z,20.73
2018-09-26T16:16:09.789Z,20.71
2018-09-26T16:17:23.827Z,20.67
2018-09-26T16:18:37.452Z,20.64
2018-09-26T16:19:52.061Z,20.62
2018-09-26T16:21:06.628Z,20.63
2018-09-26T16:22:20.811Z,20.62
2018-09-26T16:23:34.916Z,20.64